Language: 


Des rapports , des résumés tant et plus, au choix de chacun....


Données statistiques de la station
Quotidien Rapport Avril 18, 2017 Unités:  Anglais    Métrique   les deux
« Précédent Jour
Suivant Jour »
Quotidien Hebdomadaire Mensuel Annuel Actuel
  Haut: Bas: Moyen:
Température: 57.2 °F 32 °F 44.8 °F
Pt de rosée: 44.6 °F 27.1 °F 35.8 °F
Humidité: 96 % 0 % 71 %
Vitesse du vent: 19.5 mph 0 mph 4.5 mph
Rafales: 19.5 mph - -
Vent:- - WSW
Pression: 30.4 in 0 in -
Précipitation: 0.34 in    
Historical Graphs
 
 
Données statistiques pour Avril 18, 2017
Heure Température Point de rosée Pression Vent Vitesse du vent Refales Humidité Pluie (taux horaire)
00:02 39.4 °F 30.4 °F 30.2 in Calm   1.3 mph 70 % 0 in
00:07 39.2 °F 29.8 °F 30.2 in Calm   1.3 mph 69 % 0 in
00:12 38.7 °F 29.5 °F 30.2 in Calm   2.5 mph 69 % 0 in
00:17 38.1 °F 29.1 °F 30.2 in Calm   2.5 mph 70 % 0 in
00:22 37.9 °F 28.9 °F 30.2 in Calm     70 % 0 in
00:27 37.9 °F 29.5 °F 30.2 in Calm   1.6 mph 71 % 0 in
00:32 37.8 °F 29.1 °F 30.2 in Calm   1.6 mph 71 % 0 in
00:37 37.6 °F 28.9 °F 30.2 in Calm     71 % 0 in
00:42 37.4 °F 29.1 °F 30.2 in Calm     72 % 0 in
00:47 37.4 °F 29.5 °F 30.2 in West 3.1 mph 3.1 mph 73 % 0 in
00:52 37.4 °F 29.5 °F 30.3 in Calm   3.1 mph 73 % 0 in
00:57 37.2 °F 29.7 °F 30.3 in West 2.9 mph 4 mph 74 % 0 in
01:02 37.4 °F 29.8 °F 30.3 in WNW 3.4 mph 4.9 mph 74 % 0 in
01:07 37.4 °F 30.2 °F 30.2 in Calm   4.9 mph 75 % 0 in
01:12 37.6 °F 30.4 °F 30.2 in Calm   3.8 mph 75 % 0 in
01:17 37.4 °F 30.2 °F 30.2 in Calm   3.8 mph 75 % 0 in
01:22 37.2 °F 30 °F 30.3 in Calm     75 % 0 in
01:27 37 °F 29.8 °F 30.3 in Calm     75 % 0 in
01:32 36.7 °F 29.5 °F 30.3 in Calm     75 % 0 in
01:37 36.3 °F 29.1 °F 30.3 in Calm     75 % 0 in
01:42 36 °F 28.8 °F 30.3 in Calm   2 mph 75 % 0 in
01:47 35.8 °F 28.6 °F 30.3 in Calm   2 mph 75 % 0 in
01:52 35.8 °F 28.9 °F 30.2 in West 4 mph 4.3 mph 76 % 0 in
01:57 35.6 °F 28.8 °F 30.2 in Calm   4.3 mph 76 % 0 in
02:02 35.4 °F 28.9 °F 30.2 in Calm   4 mph 77 % 0 in
02:07 35.2 °F 28.8 °F 30.2 in Calm   4 mph 77 % 0 in
02:12 34.9 °F 28.8 °F 30.2 in Calm     78 % 0 in
02:17 34.9 °F 28.8 °F 30.2 in Calm     78 % 0 in
02:22 34.7 °F 28.9 °F 30.2 in Calm   4 mph 79 % 0 in
02:27 34.9 °F 28.9 °F 30.2 in Calm   4 mph 79 % 0 in
02:32 34.5 °F 28.8 °F 30.2 in Calm   1.3 mph 79 % 0 in
02:37 34 °F 27.9 °F 30.2 in Calm     78 % 0 in
02:42 33.8 °F 27.7 °F 30.2 in Calm     78 % 0 in
02:47 33.6 °F 27.9 °F 30.2 in Calm     79 % 0 in
02:52 33.4 °F 27.9 °F 30.2 in Calm     80 % 0 in
02:57 33.3 °F 27.9 °F 30.2 in Calm   3.6 mph 80 % 0 in
03:02 33.3 °F 27.9 °F 30.2 in Calm   3.6 mph 80 % 0 in
03:07 33.1 °F 27.7 °F 30.2 in Calm   3.1 mph 80 % 0 in
03:12 32.9 °F 27.3 °F 30.2 in Calm   3.4 mph 80 % 0 in
03:17 32.7 °F 27.1 °F 30.2 in Calm   3.4 mph 80 % 0 in
03:23 32.7 °F 27.5 °F 30.2 in Calm     81 % 0 in
03:28 32.9 °F 28 °F 30.2 in West 3.1 mph 3.4 mph 82 % 0 in
03:47 32 °F 28 °F 0 in Calm     0 % 0 in
03:52 34.9 °F 30.7 °F 30.2 in Calm   2.2 mph 85 % 0 in
03:57 35.6 °F 31.8 °F 30.2 in WNW 5.4 mph 5.4 mph 86 % 0 in
04:02 36.3 °F 32.7 °F 30.2 in NW 2.9 mph 5.4 mph 87 % 0 in
04:07 37.4 °F 34.2 °F 30.2 in WNW 2.9 mph 4.9 mph 88 % 0 in
04:12 38.3 °F 35.2 °F 30.2 in WNW 2.9 mph 5.6 mph 89 % 0 in
04:17 39 °F 36.1 °F 30.2 in WNW 6.9 mph 7.6 mph 89 % 0 in
04:22 39.7 °F 36.9 °F 30.2 in WNW 7.6 mph 9.8 mph 89 % 0 in
04:27 40.3 °F 37 °F 30.2 in NNW 1.6 mph 9.8 mph 88 % 0 in
04:32 41 °F 37 °F 30.2 in WNW 6 mph 6.3 mph 86 % 0 in
04:37 41.9 °F 37.4 °F 30.2 in North 6.5 mph 6.5 mph 84 % 0 in
04:42 42.3 °F 37.8 °F 30.2 in North 7.4 mph 10.1 mph 84 % 0 in
04:47 41.9 °F 37.4 °F 30.2 in WNW 5.4 mph 13 mph 84 % 0 in
04:53 41.2 °F 36.7 °F 30.2 in North 6 mph 13 mph 84 % 0 in
04:58 41 °F 36.5 °F 30.2 in NNW 1.6 mph 9.8 mph 84 % 0.08 in
05:03 40.8 °F 36.7 °F 30.2 in Calm   6.3 mph 85 % 0.13 in
05:08 40.6 °F 36.5 °F 30.2 in NNW 1.1 mph 4 mph 85 % 0.13 in
05:13 40.5 °F 36.3 °F 30.2 in Calm   4 mph 85 % 0.13 in
05:18 40.5 °F 36.7 °F 30.2 in NNW 2 mph 3.4 mph 86 % 0.13 in
05:23 40.3 °F 36.3 °F 30.2 in Calm   2.5 mph 86 % 0.13 in
05:28 39.9 °F 36.1 °F 30.2 in Calm   2 mph 86 % 0.13 in
05:33 39.7 °F 36 °F 30.2 in Calm     86 % 0.13 in
05:34 39.7 °F 36 °F 30.2 in Calm     86 % 0.13 in
05:39 39.2 °F 35.1 °F 30.2 in Calm     85 % 0.13 in
05:44 38.7 °F 34.5 °F 30.2 in Calm     85 % 0.13 in
05:49 38.5 °F 34.3 °F 30.2 in Calm     85 % 0.13 in
05:54 37.9 °F 33.8 °F 30.2 in Calm     85 % 0.13 in
05:59 37.6 °F 33.8 °F 30.2 in Calm     86 % 0 in
06:04 37.4 °F 33.6 °F 30.2 in Calm   2 mph 86 % 0 in
06:09 37.8 °F 34.2 °F 30.2 in Calm   2 mph 87 % 0 in
06:14 37.8 °F 34.5 °F 30.2 in West 0.9 mph 2 mph 88 % 0 in
06:19 37.6 °F 34.3 °F 30.2 in Calm   0.9 mph 88 % 0 in
06:24 37.4 °F 34.2 °F 30.2 in Calm     88 % 0 in
06:29 37.2 °F 34 °F 30.2 in Calm   2.5 mph 88 % 0 in
06:35 37.4 °F 34.2 °F 30.2 in Calm   2.5 mph 88 % 0 in
06:40 37.4 °F 34.5 °F 30.2 in Calm     89 % 0 in
06:45 37.2 °F 34.3 °F 30.2 in Calm     89 % 0 in
06:50 37 °F 34.3 °F 30.2 in Calm     90 % 0 in
06:55 37.4 °F 34.7 °F 30.2 in NNE 3.1 mph 4.3 mph 90 % 0 in
07:00 37.6 °F 35.8 °F 30.2 in Calm   5.4 mph 93 % 0 in
07:05 37.8 °F 36 °F 30.2 in NNE 4.3 mph 6.5 mph 93 % 0 in
07:10 38.3 °F 36.7 °F 30.3 in Calm   6.5 mph 94 % 0 in
07:15 38.5 °F 36.9 °F 30.3 in North 3.6 mph 4.9 mph 94 % 0 in
07:20 38.5 °F 36.9 °F 30.3 in Calm   4 mph 94 % 0.04 in
07:25 38.7 °F 37 °F 30.3 in Calm   4 mph 94 % 0.04 in
07:30 38.7 °F 37 °F 30.3 in Calm   3.6 mph 94 % 0.16 in
07:35 38.7 °F 37 °F 30.3 in Calm   2.5 mph 94 % 0.21 in
07:40 38.7 °F 37 °F 30.3 in Calm     94 % 0.13 in
07:45 38.8 °F 37.4 °F 30.3 in Calm     94 % 0.13 in
07:50 38.8 °F 37.4 °F 30.3 in Calm   1.3 mph 94 % 0.13 in
07:55 39 °F 37.4 °F 30.3 in Calm   1.3 mph 94 % 0.13 in
08:00 39 °F 37.4 °F 30.3 in Calm     95 % 0.15 in
08:05 39.2 °F 37.4 °F 30.2 in North 0.9 mph 2.9 mph 94 % 0.15 in
08:10 39.4 °F 37.4 °F 30.2 in NE 3.1 mph 4 mph 95 % 0.15 in
08:15 39.4 °F 37.4 °F 30.2 in North 4 mph 4.9 mph 95 % 0.18 in
08:20 39.4 °F 37.4 °F 30.3 in NNE 2.7 mph 4.9 mph 95 % 0.16 in
08:25 39.6 °F 39.2 °F 30.3 in Calm   3.6 mph 95 % 0.16 in
08:30 40.5 °F 39.2 °F 30.3 in Calm   3.6 mph 96 % 0.11 in
08:35 41.4 °F 41 °F 30.3 in Calm     96 % 0.07 in
08:41 42.1 °F 42.8 °F 30.3 in Calm   1.1 mph 96 % 0.07 in
08:46 43.3 °F 42.8 °F 30.3 in Calm   1.1 mph 96 % 0.07 in
08:51 43.5 °F 42.8 °F 30.3 in Calm     96 % 0.07 in
08:56 44.6 °F 42.8 °F 30.3 in Calm     95 % 0.07 in
09:01 45.1 °F 42.8 °F 30.3 in West 2.9 mph 4 mph 94 % 0.06 in
09:06 45.3 °F 42.8 °F 30.3 in Calm   4 mph 94 % 0.06 in
09:11 45.9 °F 44.6 °F 30.3 in West 4.9 mph 5.8 mph 93 % 0.06 in
09:16 45.9 °F 42.8 °F 30.3 in Calm   6.5 mph 92 % 0.02 in
09:21 46.4 °F 44.6 °F 30.3 in West 5.4 mph 6.5 mph 91 % 0.02 in
09:26 46.6 °F 44.6 °F 30.3 in West 4.9 mph 6.5 mph 91 % 0.02 in
09:31 46.4 °F 44.6 °F 30.3 in West 3.4 mph 6.5 mph 89 % 0 in
09:36 46 °F 42.8 °F 30.3 in West 2.7 mph 6.5 mph 89 % 0 in
09:41 45.7 °F 42.8 °F 30.3 in NNW 11 mph 14.8 mph 89 % 0 in
09:46 42.8 °F 37.4 °F 30.3 in NNE 1.6 mph 14.8 mph 82 % 0 in
09:51 41.9 °F 37.4 °F 30.3 in NNW 6.3 mph 12.8 mph 82 % 0 in
09:56 41 °F 37.4 °F 30.3 in NW 6 mph 12.8 mph 84 % 0 in
10:01 41.2 °F 37.4 °F 30.3 in North 3.8 mph 10.1 mph 86 % 0 in
10:06 41.2 °F 37.4 °F 30.3 in NNE 8.1 mph 8.1 mph 87 % 0 in
10:11 41.5 °F 39.2 °F 30.3 in North 8.1 mph 12.3 mph 88 % 0.05 in
10:17 43.3 °F 41 °F 30.3 in North 5.4 mph 12.3 mph 89 % 0.05 in
10:22 44.2 °F 41 °F 30.3 in North 7.8 mph 9.8 mph 90 % 0.05 in
10:27 45.7 °F 42.8 °F 30.3 in NNW 8.5 mph 10.1 mph 87 % 0.05 in
10:32 46.6 °F 42.8 °F 30.3 in North 6 mph 10.1 mph 86 % 0.05 in
10:37 47.1 °F 42.8 °F 30.3 in North 5.8 mph 10.1 mph 85 % 0.05 in
10:42 48 °F 42.8 °F 30.3 in NW 9.6 mph 11 mph 81 % 0.05 in
10:47 47.5 °F 42.8 °F 30.3 in NE 3.6 mph 11 mph 80 % 0.05 in
10:52 46.8 °F 41 °F 30.3 in NNW 6 mph 8.1 mph 77 % 0.05 in
10:57 47.3 °F 41 °F 30.3 in ENE 13 mph 13 mph 75 % 0.05 in
11:02 48.2 °F 41 °F 30.3 in NNW 5.8 mph 13 mph 74 % 0.05 in
11:07 48.9 °F 41 °F 30.3 in North 10.3 mph 12.5 mph 73 % 0.05 in
11:12 49.6 °F 41 °F 30.3 in North 7.6 mph 11.2 mph 72 % 0 in
11:17 50 °F 41 °F 30.3 in North 8.7 mph 14.5 mph 71 % 0 in
11:22 49.8 °F 41 °F 30.3 in WNW 5.6 mph 14.5 mph 69 % 0 in
11:27 48.7 °F 39.2 °F 30.3 in North 5.8 mph 12.1 mph 68 % 0 in
11:32 49.5 °F 41 °F 30.3 in NNW 3.4 mph 12.1 mph 71 % 0 in
11:37 48.9 °F 39.2 °F 30.3 in North 8.1 mph 11.4 mph 68 % 0 in
11:43 49.5 °F 39.2 °F 30.3 in NE 10.3 mph 15.2 mph 66 % 0 in
11:48 50.4 °F 37.4 °F 30.3 in NE 6.5 mph 16.1 mph 62 % 0 in
11:53 51.3 °F 39.2 °F 30.3 in ENE 10.7 mph 16.3 mph 64 % 0 in
11:58 51.6 °F 39.2 °F 30.3 in ENE 10.7 mph 17.7 mph 60 % 0 in
12:03 52.3 °F 39.2 °F 30.3 in NE 8.1 mph 17.7 mph 62 % 0 in
12:08 50.5 °F 37.4 °F 30.3 in NNE 10.3 mph 17.2 mph 58 % 0 in
12:13 49.3 °F 37.4 °F 30.3 in NNE 10.5 mph 14.8 mph 60 % 0 in
12:18 48.7 °F 39.2 °F 30.3 in NE 10.3 mph 17.2 mph 67 % 0 in
12:23 48.9 °F 37.4 °F 30.3 in North 13 mph 17.2 mph 66 % 0 in
12:28 50.4 °F 37.4 °F 30.3 in NNW 12.3 mph 15.4 mph 62 % 0 in
12:33 51.3 °F 39.2 °F 30.3 in North 13.2 mph 15.4 mph 62 % 0 in
12:38 51.6 °F 39.2 °F 30.3 in North 10.7 mph 16.8 mph 61 % 0 in
12:43 52 °F 39.2 °F 30.3 in North 11.2 mph 16.8 mph 61 % 0 in
12:48 52.7 °F 39.2 °F 30.3 in North 9.8 mph 15.2 mph 60 % 0 in
12:53 51.6 °F 39.2 °F 30.3 in NE 11.4 mph 14.8 mph 60 % 0 in
12:58 50 °F 35.6 °F 30.3 in NNE 11 mph 16.6 mph 58 % 0 in
13:03 50.5 °F 37.4 °F 30.3 in North 13.2 mph 17.2 mph 59 % 0 in
13:08 50.5 °F 37.4 °F 30.3 in ENE 12.5 mph 17.2 mph 59 % 0 in
13:13 50.7 °F 35.6 °F 30.3 in NE 10.3 mph 15.4 mph 57 % 0 in
13:19 51.8 °F 37.4 °F 30.3 in NE 7.4 mph 14.1 mph 57 % 0 in
13:24 52.7 °F 37.4 °F 30.3 in North 15.2 mph 15.2 mph 57 % 0 in
13:29 53.2 °F 37.4 °F 30.3 in NE 12.8 mph 15.7 mph 56 % 0 in
13:34 52.3 °F 37.4 °F 30.3 in North 9.8 mph 15.7 mph 58 % 0 in
13:39 50.9 °F 37.4 °F 30.3 in North 7.6 mph 14.5 mph 57 % 0 in
13:44 52.9 °F 39.2 °F 30.3 in NE 7.4 mph 14.5 mph 59 % 0 in
13:49 53.8 °F 39.2 °F 30.3 in North 10.5 mph 13 mph 56 % 0 in
13:54 54.5 °F 39.2 °F 30.3 in North 19.5 mph 19.5 mph 54 % 0 in
13:59 52.2 °F 33.8 °F 30.3 in ENE 10.3 mph 19.5 mph 50 % 0 in
14:04 52.9 °F 35.6 °F 30.3 in North 6.5 mph 15.4 mph 50 % 0 in
14:09 53.8 °F 35.6 °F 30.3 in North 4.5 mph 15.4 mph 50 % 0 in
14:14 54.9 °F 37.4 °F 30.3 in NE 8.9 mph 14.5 mph 51 % 0 in
14:19 54.5 °F 37.4 °F 30.3 in NE 9.2 mph 15.2 mph 49 % 0 in
14:24 55 °F 37.4 °F 30.3 in NE 12.5 mph 17.2 mph 50 % 0 in
14:29 54.3 °F 35.6 °F 30.3 in ENE 10.5 mph 17.2 mph 47 % 0 in
14:34 55.6 °F 37.4 °F 30.3 in NNE 10.7 mph 14.8 mph 48 % 0 in
14:39 53.8 °F 33.8 °F 30.3 in NE 14.1 mph 17.7 mph 47 % 0 in
14:44 53.8 °F 33.8 °F 30.3 in North 10.7 mph 17.7 mph 47 % 0 in
14:49 52.7 °F 33.8 °F 30.3 in NNE 6 mph 12.8 mph 47 % 0 in
14:54 53.6 °F 33.8 °F 30.3 in North 13.9 mph 13.9 mph 47 % 0 in
14:59 53.1 °F 33.8 °F 30.3 in North 9.6 mph 15.9 mph 47 % 0 in
15:04 54.5 °F 35.6 °F 30.3 in North 8.1 mph 15.9 mph 47 % 0 in
15:09 54.5 °F 35.6 °F 30.3 in NNW 6 mph 12.8 mph 47 % 0 in
15:14 52.3 °F 33.8 °F 30.3 in NNE 12.5 mph 12.5 mph 47 % 0 in
15:19 53.4 °F 33.8 °F 30.3 in North 7.8 mph 13.2 mph 47 % 0 in
15:24 56.7 °F 37.4 °F 30.3 in North 6 mph 13.2 mph 47 % 0 in
15:29 53.2 °F 33.8 °F 30.3 in North 7.8 mph 15.7 mph 47 % 0 in
15:30 53.2 °F 33.8 °F 30.3 in North 7.8 mph 15.7 mph 47 % 0 in
15:35 55.4 °F 35.6 °F 30.3 in North 5.8 mph 15.7 mph 47 % 0 in
15:40 56.5 °F 37.4 °F 30.3 in North 8.5 mph 12.1 mph 46 % 0 in
15:41 57.2 °F 37.4 °F 30.3 in North 7.8 mph 10.7 mph 46 % 0 in
15:46 57.2 °F 37.4 °F 30.3 in North 12.1 mph 12.1 mph 47 % 0 in
15:51 56.3 °F 37.4 °F 30.3 in NNW 13 mph 13 mph 48 % 0 in
15:56 53.8 °F 35.6 °F 30.3 in NNW 10.7 mph 13 mph 49 % 0 in
16:01 52.9 °F 35.6 °F 30.3 in NNW 8.9 mph 13.4 mph 52 % 0 in
16:06 51.8 °F 35.6 °F 30.3 in NNW 7.2 mph 13.4 mph 52 % 0 in
16:11 51.6 °F 35.6 °F 30.3 in North 6.7 mph 12.5 mph 53 % 0 in
16:16 52 °F 35.6 °F 30.3 in NNW 7.4 mph 10.7 mph 53 % 0 in
16:21 54.1 °F 37.4 °F 30.3 in WNW 6.3 mph 10.7 mph 53 % 0 in
16:26 54.3 °F 39.2 °F 30.3 in North 5.8 mph 12.5 mph 54 % 0 in
16:31 52.5 °F 35.6 °F 30.3 in North 9.6 mph 12.5 mph 53 % 0 in
16:36 51.6 °F 35.6 °F 30.3 in NNE 5.8 mph 15.2 mph 52 % 0 in
16:41 51.6 °F 35.6 °F 30.3 in North 6 mph 15.2 mph 52 % 0 in
16:46 53.8 °F 37.4 °F 30.3 in North 4.5 mph 7.8 mph 52 % 0 in
16:51 54.3 °F 37.4 °F 30.3 in North 7.2 mph 10.3 mph 51 % 0 in
16:56 54.9 °F 37.4 °F 30.3 in NNE 8.7 mph 12.1 mph 51 % 0 in
17:01 55.9 °F 39.2 °F 30.3 in NW 3.6 mph 12.1 mph 51 % 0 in
17:06 55.4 °F 37.4 °F 30.3 in NNW 4.3 mph 10.3 mph 50 % 0 in
17:11 54.7 °F 37.4 °F 30.3 in NNW 3.8 mph 10.3 mph 51 % 0 in
17:16 52.9 °F 35.6 °F 30.3 in NNW 6 mph 9.8 mph 52 % 0 in
17:21 53.2 °F 37.4 °F 30.3 in WNW 5.4 mph 8.7 mph 54 % 0 in
17:26 53.6 °F 37.4 °F 30.3 in West 5.8 mph 8.5 mph 54 % 0 in
17:31 55.4 °F 39.2 °F 30.3 in North 2.5 mph 8.5 mph 54 % 0 in
17:37 56.8 °F 39.2 °F 30.3 in North 5.4 mph 8.1 mph 52 % 0 in
17:42 55.9 °F 39.2 °F 30.3 in North 7.8 mph 10.5 mph 53 % 0 in
17:47 54.1 °F 37.4 °F 30.3 in NNW 7.4 mph 10.7 mph 52 % 0 in
17:52 52.3 °F 35.6 °F 30.4 in North 11.9 mph 13.2 mph 53 % 0 in
17:57 51.6 °F 35.6 °F 30.4 in NNE 17.7 mph 17.7 mph 54 % 0 in
18:02 49.8 °F 35.6 °F 30.4 in North 12.3 mph 17.7 mph 56 % 0 in
18:07 49.1 °F 35.6 °F 30.4 in NNE 6 mph 14.5 mph 58 % 0 in
18:12 48.9 °F 35.6 °F 30.4 in North 6.5 mph 12.5 mph 59 % 0 in
18:17 48.7 °F 35.6 °F 30.4 in North 4 mph 10.7 mph 61 % 0 in
18:22 48.7 °F 35.6 °F 30.3 in NNW 5.8 mph 10.3 mph 59 % 0 in
18:27 48.7 °F 35.6 °F 30.3 in North 8.5 mph 10.1 mph 58 % 0 in
18:32 49.1 °F 37.4 °F 30.3 in NNE 5.8 mph 10.1 mph 60 % 0 in
18:33 49.1 °F 37.4 °F 30.3 in ENE 6.5 mph 10.1 mph 60 % 0 in
18:38 50.7 °F 37.4 °F 30.3 in ESE 4.9 mph 7.4 mph 60 % 0 in
18:43 51.4 °F 37.4 °F 30.3 in North 4.9 mph 7.4 mph 61 % 0 in
18:48 52 °F 37.4 °F 30.3 in North 6.3 mph 10.5 mph 59 % 0 in
18:53 52.2 °F 39.2 °F 30.3 in North 4.3 mph 10.5 mph 59 % 0 in
18:58 52.5 °F 37.4 °F 30.3 in NNE 7.8 mph 8.7 mph 58 % 0 in
19:03 52.9 °F 39.2 °F 30.3 in NW 2.2 mph 8.7 mph 59 % 0 in
19:08 52.9 °F 37.4 °F 30.4 in NNE 7.8 mph 10.1 mph 57 % 0 in
19:13 52.9 °F 37.4 °F 30.4 in NNW 7.4 mph 10.1 mph 56 % 0 in
19:18 52.3 °F 37.4 °F 30.4 in NW 4 mph 8.5 mph 56 % 0 in
19:23 52.2 °F 37.4 °F 30.4 in North 4 mph 10.3 mph 57 % 0 in
19:28 52.3 °F 37.4 °F 30.4 in NNW 5.6 mph 10.3 mph 57 % 0 in
19:33 51.8 °F 37.4 °F 30.4 in North 8.5 mph 10.5 mph 57 % 0 in
19:39 51.3 °F 37.4 °F 30.4 in NNE 8.1 mph 13.2 mph 57 % 0 in
19:44 50.4 °F 35.6 °F 30.4 in North 7.8 mph 13.2 mph 57 % 0 in
19:49 49.8 °F 35.6 °F 30.4 in NNE 6.3 mph 11.2 mph 58 % 0 in
19:54 49.3 °F 35.6 °F 30.4 in North 5.6 mph 11 mph 59 % 0 in
19:59 48.9 °F 35.6 °F 30.4 in North 7.8 mph 10.5 mph 60 % 0 in
20:04 48.7 °F 35.6 °F 30.4 in NNE 8.7 mph 9.8 mph 61 % 0 in
20:09 48.6 °F 37.4 °F 30.4 in North 3.6 mph 9.8 mph 62 % 0 in
20:14 48.2 °F 35.6 °F 30.4 in North 5.4 mph 7.8 mph 62 % 0 in
20:19 48 °F 37.4 °F 30.4 in North 6.5 mph 7.6 mph 64 % 0 in
20:24 47.7 °F 35.6 °F 30.4 in NNE 7.8 mph 8.9 mph 63 % 0 in
20:29 47.5 °F 35.6 °F 30.4 in NNE 7.6 mph 8.7 mph 63 % 0 in
20:34 47.1 °F 35.6 °F 30.4 in NNE 6 mph 8.7 mph 62 % 0 in
20:39 46.8 °F 35.6 °F 30.4 in North 5.4 mph 8.7 mph 63 % 0 in
20:44 46.8 °F 35.6 °F 30.4 in North 3.4 mph 8.7 mph 64 % 0 in
20:49 46.4 °F 35.6 °F 30.4 in North 6.5 mph 8.5 mph 65 % 0 in
20:54 46 °F 35.6 °F 30.4 in NE 4.7 mph 7.6 mph 67 % 0 in
20:59 46 °F 35.6 °F 30.4 in NNE 4.3 mph 7.8 mph 67 % 0 in
21:04 45.3 °F 35.6 °F 30.4 in NNE 5.4 mph 7.8 mph 69 % 0 in
21:09 45 °F 35.6 °F 30.4 in North 5.8 mph 8.1 mph 69 % 0 in
21:14 44.8 °F 35.6 °F 30.4 in NNE 6 mph 8.1 mph 69 % 0 in
21:19 45 °F 37.4 °F 30.4 in NNE 6 mph 6.5 mph 71 % 0 in
21:25 44.8 °F 35.6 °F 30.4 in North 4.9 mph 6.5 mph 70 % 0 in
21:30 44.4 °F 35.6 °F 30.4 in NE 2.5 mph 6.5 mph 71 % 0 in
21:35 43.9 °F 35.6 °F 30.4 in NNE 3.1 mph 6.5 mph 72 % 0 in
21:40 43.5 °F 35.6 °F 30.4 in North 3.8 mph 4.3 mph 72 % 0 in
21:45 43.3 °F 35.6 °F 30.4 in Calm   4.3 mph 73 % 0 in
21:50 43 °F 35.6 °F 30.4 in North 2.9 mph 4.3 mph 73 % 0 in
21:55 42.4 °F 35.6 °F 30.4 in Calm   3.1 mph 74 % 0 in
22:00 42.3 °F 35.6 °F 30.4 in Calm   2.7 mph 74 % 0 in
22:05 41.5 °F 33.8 °F 30.4 in Calm   0.9 mph 74 % 0 in
22:10 41.2 °F 33.8 °F 30.4 in Calm   2.7 mph 75 % 0 in
22:15 41 °F 33.8 °F 30.4 in Calm   2.7 mph 75 % 0 in
22:20 40.8 °F 33.8 °F 30.4 in Calm   3.1 mph 76 % 0 in
22:25 40.8 °F 33.8 °F 30.4 in Calm   3.1 mph 77 % 0 in
22:30 40.8 °F 33.8 °F 30.4 in NNW 1.3 mph 3.1 mph 77 % 0 in
22:35 40.6 °F 33.8 °F 30.4 in Calm   2 mph 78 % 0 in
22:40 40.6 °F 33.8 °F 30.4 in Calm   0.9 mph 78 % 0 in
22:45 40.6 °F 33.8 °F 30.4 in Calm   0.9 mph 78 % 0 in
22:50 40.5 °F 33.8 °F 30.4 in Calm   0.9 mph 78 % 0 in
22:56 40.3 °F 33.8 °F 30.4 in Calm     79 % 0 in
23:01 40.5 °F 33.8 °F 30.4 in NW 0.9 mph 3.1 mph 79 % 0 in
23:06 40.5 °F 35.6 °F 30.4 in Calm   3.4 mph 80 % 0 in
23:11 40.6 °F 35.6 °F 30.4 in NNW 2.7 mph 3.6 mph 81 % 0 in
23:16 40.6 °F 35.6 °F 30.4 in NE 2.9 mph 3.6 mph 82 % 0 in
23:21 40.5 °F 35.6 °F 30.4 in NNE 4 mph 4 mph 82 % 0 in
23:26 40.3 °F 35.6 °F 30.4 in NNE 3.1 mph 4.3 mph 81 % 0 in
23:31 40.3 °F 35.6 °F 30.4 in North 3.8 mph 4.9 mph 82 % 0 in
23:36 39.9 °F 35.6 °F 30.4 in NNE 3.4 mph 4.9 mph 82 % 0 in
23:41 39.7 °F 35.6 °F 30.4 in NNE 3.1 mph 4.7 mph 83 % 0 in
23:46 39.7 °F 35.6 °F 30.4 in North 3.1 mph 4.7 mph 83 % 0 in
23:51 39.7 °F 35.6 °F 30.4 in NNE 4 mph 5.6 mph 83 % 0 in
23:56 39.7 °F 35.6 °F 30.4 in NE 4.9 mph 5.6 mph 84 % 0 in
Le Gheer Warneton
Courtoisie de Weather Underground - 2.25 mb

Mise a jour : 18/12/2017 17:21:11
Généré par Cumulus 1.9.4 (1099)